Time;durP1;ratioP1;P1;durP2;ratioP2;P2;SDS_P1;SDS_P2;PMS_P1;PMS_P2;Temp;Humidity;BMP_temperature;BMP_pressure;BME280_temperature;BME280_humidity;BME280_pressure;Samples;Min_cycle;Max_cycle;Signal;HPM_P1;HPM_P2
2022/10/27 00:00:46;;;;;;;3.87;2.43;;;;;;;13.82;57.95;97939.25;4972040;28;20196;-75
2022/10/27 00:03:15;;;;;;;3.87;2.50;;;;;;;13.72;57.76;97938.78;4970571;28;20641;-75
2022/10/27 00:05:45;;;;;;;3.70;2.40;;;;;;;13.64;58.50;97937.47;4971817;28;20199;-76
2022/10/27 00:08:17;;;;;;;4.37;2.40;;;;;;;13.58;58.96;97922.13;4971203;28;20527;-76
2022/10/27 00:10:44;;;;;;;2.73;2.03;;;;;;;13.57;58.65;97928.22;4971208;28;20685;-76
2022/10/27 00:13:12;;;;;;;4.23;2.67;;;;;;;13.59;58.78;97927.25;4971712;28;20198;-76
2022/10/27 00:15:40;;;;;;;3.97;2.17;;;;;;;13.52;59.24;97930.16;4970480;28;20590;-76
2022/10/27 00:18:10;;;;;;;6.90;3.50;;;;;;;13.37;59.03;97933.44;4971549;28;20229;-76
2022/10/27 00:20:38;;;;;;;6.43;3.83;;;;;;;13.31;59.74;97920.69;4970437;28;20247;-76
2022/10/27 00:23:05;;;;;;;6.03;3.70;;;;;;;13.32;60.09;97920.63;4978181;28;20294;-75
2022/10/27 00:25:32;;;;;;;5.87;3.10;;;;;;;13.48;59.73;97921.66;4990291;28;20208;-75
2022/10/27 00:27:59;;;;;;;4.37;2.67;;;;;;;13.47;59.19;97925.19;4990441;28;20663;-75
2022/10/27 00:30:26;;;;;;;3.13;2.43;;;;;;;13.54;58.90;97918.78;4990751;28;20649;-76
2022/10/27 00:32:53;;;;;;;3.23;2.30;;;;;;;13.62;59.22;97921.91;4989653;28;20191;-76
2022/10/27 00:35:20;;;;;;;3.20;2.33;;;;;;;13.75;58.76;97917.00;4990731;28;20689;-76
2022/10/27 00:37:47;;;;;;;2.60;2.17;;;;;;;13.93;58.20;97921.38;4989539;28;20204;-76
2022/10/27 00:40:15;;;;;;;2.43;2.17;;;;;;;14.01;57.98;97916.69;4990779;28;20324;-76
2022/10/27 00:42:42;;;;;;;2.37;1.90;;;;;;;14.31;57.21;97917.06;4989718;28;20584;-76
2022/10/27 00:45:09;;;;;;;3.27;2.03;;;;;;;14.46;56.74;97919.81;4981173;28;20677;-75
2022/10/27 00:47:37;;;;;;;1.93;1.83;;;;;;;14.41;56.46;97920.91;4971038;28;20283;-77
2022/10/27 00:50:12;;;;;;;3.67;2.20;;;;;;;14.29;57.33;97919.75;4970094;28;20579;-76
2022/10/27 00:52:50;;;;;;;2.67;2.20;;;;;;;14.23;58.02;97916.53;4971241;28;20191;-77
2022/10/27 00:55:32;;;;;;;3.40;2.03;;;;;;;14.43;57.31;97919.94;4969779;28;20258;-76
2022/10/27 00:58:05;;;;;;;3.60;2.10;;;;;;;14.52;57.18;97926.50;4970724;28;20209;-77
2022/10/27 01:00:35;;;;;;;3.67;2.17;;;;;;;14.59;57.03;97920.03;4970888;28;20566;-76
2022/10/27 01:03:03;;;;;;;4.37;2.03;;;;;;;14.27;57.29;97895.50;4967704;28;20227;-76
2022/10/27 01:05:31;;;;;;;3.63;2.33;;;;;;;14.43;57.00;97919.09;4990214;28;20688;-76
2022/10/27 01:08:01;;;;;;;5.33;2.20;;;;;;;14.25;58.11;97920.78;4987658;28;20482;-76
2022/10/27 01:10:28;;;;;;;5.57;2.30;;;;;;;14.10;58.41;97911.06;4990315;28;20197;-77
2022/10/27 01:12:57;;;;;;;3.70;2.00;;;;;;;13.82;59.20;97905.41;4989266;28;20210;-76
2022/10/27 01:15:35;;;;;;;2.93;2.10;;;;;;;13.46;60.06;97909.59;4989743;28;20200;-77
2022/10/27 01:18:14;;;;;;;3.27;2.00;;;;;;;13.47;60.11;97916.53;4989862;28;20224;-77
2022/10/27 01:20:59;;;;;;;2.70;1.93;;;;;;;13.59;59.69;97918.59;4989026;28;20205;-76
2022/10/27 01:24:10;;;;;;;3.97;2.30;;;;;;;13.84;59.31;97917.44;4989869;28;20229;-76
2022/10/27 01:26:43;;;;;;;3.90;2.80;;;;;;;14.05;58.77;97928.66;4913457;29;20200;-77
2022/10/27 01:29:17;;;;;;;5.90;2.47;;;;;;;14.03;58.10;97920.06;4979092;28;20623;-76
2022/10/27 01:32:15;;;;;;;6.20;2.30;;;;;;;14.02;58.44;97920.97;4989759;28;20194;-76
2022/10/27 01:35:09;;;;;;;3.37;2.63;;;;;;;14.07;58.35;97934.66;4988768;28;20190;-77
2022/10/27 01:37:54;;;;;;;5.00;2.40;;;;;;;14.11;57.97;97930.13;4980252;28;20234;-76
2022/10/27 01:40:29;;;;;;;4.23;2.60;;;;;;;14.21;57.71;97924.44;4989811;28;20187;-76
2022/10/27 01:43:03;;;;;;;3.77;2.40;;;;;;;14.41;57.09;97929.59;4988432;28;20225;-76
2022/10/27 01:45:33;;;;;;;5.30;2.63;;;;;;;14.40;57.47;97927.06;4989244;28;20617;-75
2022/10/27 01:48:01;;;;;;;3.23;2.40;;;;;;;14.48;56.68;97928.41;4989094;28;20220;-76
2022/10/27 01:50:40;;;;;;;4.27;2.60;;;;;;;14.34;57.61;97920.34;4988384;28;20283;-76
2022/10/27 01:53:31;;;;;;;4.10;2.77;;;;;;;14.50;57.27;97930.94;4989512;28;20290;-76
2022/10/27 01:56:04;;;;;;;6.70;3.10;;;;;;;14.31;57.04;97941.38;4987520;28;20184;-77
2022/10/27 01:58:39;;;;;;;7.20;3.20;;;;;;;14.32;56.62;97943.03;4989094;28;20205;-76
2022/10/27 02:01:27;;;;;;;5.47;3.20;;;;;;;14.28;57.51;97944.09;4988885;28;20196;-77
2022/10/27 02:04:03;;;;;;;3.67;2.90;;;;;;;14.25;57.16;97943.38;4970395;28;20227;-77
2022/10/27 02:06:50;;;;;;;3.20;2.90;;;;;;;13.99;58.02;97938.50;4987746;28;20225;-76
2022/10/27 02:09:38;;;;;;;8.30;3.07;;;;;;;13.93;58.57;97947.41;4988004;28;20186;-76
2022/10/27 02:12:13;;;;;;;7.07;3.70;;;;;;;13.79;58.32;97950.66;4988087;28;20184;-77
2022/10/27 02:14:42;;;;;;;4.67;3.40;;;;;;;13.72;58.53;97946.59;4988970;28;20214;-76
2022/10/27 02:17:12;;;;;;;4.93;2.93;;;;;;;13.40;59.89;97951.50;4987410;28;20222;-75
2022/10/27 02:19:41;;;;;;;7.63;3.30;;;;;;;13.44;59.82;97951.31;4988849;28;20187;-75
2022/10/27 02:22:10;;;;;;;4.63;3.13;;;;;;;13.51;59.68;97954.50;4986325;28;20200;-75
2022/10/27 02:24:38;;;;;;;4.20;3.37;;;;;;;13.73;58.79;97960.47;4988579;28;20196;-77
2022/10/27 02:27:14;;;;;;;3.37;2.77;;;;;;;13.70;58.93;97958.03;4988771;28;20578;-77
2022/10/27 02:29:45;;;;;;;3.80;2.50;;;;;;;13.47;59.67;97965.97;4986023;28;20202;-76
2022/10/27 02:32:17;;;;;;;7.70;2.73;;;;;;;13.08;60.81;97958.88;4988647;28;20469;-75
2022/10/27 02:34:46;;;;;;;4.43;2.60;;;;;;;12.95;61.37;97964.63;4985858;28;20200;-77
2022/10/27 02:37:25;;;;;;;3.87;2.57;;;;;;;12.85;61.95;97973.72;4988600;28;20187;-76
2022/10/27 02:39:52;;;;;;;3.17;2.47;;;;;;;12.71;62.14;97974.28;4988270;28;20196;-76
2022/10/27 02:42:19;;;;;;;4.17;2.63;;;;;;;12.75;62.67;97973.25;4986301;28;20190;-76
2022/10/27 02:44:45;;;;;;;3.40;2.30;;;;;;;12.82;62.55;97977.28;4988365;28;20201;-77
2022/10/27 02:47:12;;;;;;;3.50;2.20;;;;;;;12.72;62.66;97981.16;4987477;28;20189;-77
2022/10/27 02:49:39;;;;;;;4.87;2.97;;;;;;;12.55;62.76;97980.94;4988326;28;20200;-77
2022/10/27 02:52:06;;;;;;;6.63;2.67;;;;;;;12.46;63.11;97983.91;4985922;28;20650;-77
2022/10/27 02:54:33;;;;;;;4.67;2.27;;;;;;;12.46;63.18;97983.91;4986972;28;20603;-77
2022/10/27 02:57:00;;;;;;;3.77;2.20;;;;;;;12.39;64.00;97989.38;4987558;28;20188;-77
2022/10/27 02:59:27;;;;;;;4.47;2.77;;;;;;;12.38;64.15;97987.69;4987715;28;20192;-77
2022/10/27 03:01:53;;;;;;;5.53;2.90;;;;;;;12.35;64.24;97991.25;4988046;28;20691;-77
2022/10/27 03:04:20;;;;;;;8.77;3.27;;;;;;;12.28;63.92;97987.22;4969392;28;20220;-77
2022/10/27 03:06:47;;;;;;;7.60;3.77;;;;;;;12.45;63.90;97984.81;4988241;28;20192;-77
2022/10/27 03:09:14;;;;;;;7.90;3.67;;;;;;;12.58;63.59;97987.78;4969458;28;20689;-76
2022/10/27 03:11:41;;;;;;;5.70;3.80;;;;;;;12.49;63.79;97976.00;4987042;28;20194;-76
2022/10/27 03:14:12;;;;;;;4.80;3.83;;;;;;;12.33;64.64;97981.81;4987123;28;20755;-77
2022/10/27 03:16:39;;;;;;;5.63;3.80;;;;;;;12.40;64.19;97983.28;4987477;28;20207;-78
2022/10/27 03:19:06;;;;;;;5.80;4.00;;;;;;;12.42;64.35;97981.47;4987928;28;20196;-76
2022/10/27 03:21:32;;;;;;;8.63;4.80;;;;;;;12.51;63.95;97988.94;4986812;28;20703;-76
2022/10/27 03:23:59;;;;;;;5.23;3.83;;;;;;;12.55;64.22;97986.13;4987829;28;20229;-77
2022/10/27 03:26:26;;;;;;;5.80;3.80;;;;;;;12.55;64.37;97988.75;4985238;28;20659;-77
2022/10/27 03:28:53;;;;;;;4.83;3.63;;;;;;;12.43;64.23;97972.78;4988098;28;20199;-77
2022/10/27 03:31:20;;;;;;;6.83;3.40;;;;;;;12.45;64.63;97990.00;4986939;28;20184;-77
2022/10/27 03:33:47;;;;;;;6.50;3.53;;;;;;;12.55;64.73;97988.75;4986322;28;20276;-76
2022/10/27 03:36:14;;;;;;;11.40;4.00;;;;;;;12.49;64.54;97983.78;4987380;28;20196;-77
2022/10/27 03:38:40;;;;;;;4.50;3.23;;;;;;;12.65;63.89;97992.66;4986947;28;20191;-77
2022/10/27 03:41:07;;;;;;;6.27;3.77;;;;;;;12.89;64.10;97999.53;4987789;28;20192;-77
2022/10/27 03:43:34;;;;;;;8.33;3.63;;;;;;;13.05;62.67;97992.84;4986442;28;20231;-77
2022/10/27 03:46:01;;;;;;;5.60;3.80;;;;;;;13.34;62.09;97993.41;4987924;28;20187;-77
2022/10/27 03:48:28;;;;;;;7.17;4.27;;;;;;;13.34;62.00;97990.78;4986717;28;20186;-77
2022/10/27 03:50:55;;;;;;;7.10;3.63;;;;;;;13.25;62.19;97996.41;4987640;28;20748;-78
2022/10/27 03:53:22;;;;;;;11.13;5.20;;;;;;;13.34;61.71;98002.06;4987023;28;20192;-77
2022/10/27 03:55:49;;;;;;;11.47;5.27;;;;;;;13.32;62.39;97998.66;4986951;28;20728;-78
2022/10/27 03:58:17;;;;;;;7.40;3.93;;;;;;;13.02;62.27;97964.31;4988008;28;20581;-78
2022/10/27 04:00:44;;;;;;;8.50;4.60;;;;;;;13.32;61.74;98000.41;4986397;28;20196;-78
2022/10/27 04:03:12;;;;;;;14.00;4.33;;;;;;;13.20;62.01;98012.19;4972875;28;20223;-78
2022/10/27 04:05:39;;;;;;;5.07;3.73;;;;;;;13.23;62.38;98021.63;4966386;28;20190;-79
2022/10/27 04:08:06;;;;;;;9.53;3.50;;;;;;;13.00;62.02;97999.94;4966647;28;20191;-77
2022/10/27 04:10:33;;;;;;;4.53;2.97;;;;;;;12.97;62.93;98005.28;4965768;28;20671;-77
2022/10/27 04:12:59;;;;;;;6.07;3.33;;;;;;;12.95;63.03;98025.28;4967714;28;20194;-77
2022/10/27 04:15:27;;;;;;;5.23;3.30;;;;;;;12.69;63.31;98002.06;4967830;28;20202;-77
2022/10/27 04:17:58;;;;;;;7.30;3.70;;;;;;;12.27;64.56;97998.50;4965254;28;20702;-77
2022/10/27 04:20:26;;;;;;;5.67;3.63;;;;;;;11.98;65.72;98020.31;4971140;28;20181;-77
2022/10/27 04:22:55;;;;;;;4.73;3.67;;;;;;;11.92;66.46;98037.84;4970010;28;20216;-78
2022/10/27 04:25:23;;;;;;;5.97;3.97;;;;;;;11.83;67.47;98036.44;4971406;28;20581;-78
2022/10/27 04:27:50;;;;;;;8.87;3.90;;;;;;;11.72;67.33;98048.94;4969016;28;20205;-77
2022/10/27 04:30:19;;;;;;;8.63;4.03;;;;;;;11.59;67.95;98039.84;4971019;28;20194;-77
2022/10/27 04:32:51;;;;;;;7.93;3.50;;;;;;;11.64;68.25;98031.91;4970250;28;20190;-77
2022/10/27 04:35:18;;;;;;;6.37;4.40;;;;;;;11.65;68.13;98038.78;4969930;28;20184;-79
2022/10/27 04:37:45;;;;;;;8.60;5.13;;;;;;;11.54;69.11;98033.13;4971254;28;20196;-77
2022/10/27 04:40:12;;;;;;;7.37;4.30;;;;;;;11.61;68.20;98037.19;4968399;28;20641;-77
2022/10/27 04:42:47;;;;;;;5.33;4.10;;;;;;;11.55;68.32;98050.38;4969782;28;20200;-77
2022/10/27 04:45:14;;;;;;;7.00;3.70;;;;;;;11.33;69.42;98032.91;4970149;28;20193;-77
2022/10/27 04:47:42;;;;;;;5.50;3.03;;;;;;;10.97;69.25;97976.22;4953802;28;20227;-78
2022/10/27 04:50:09;;;;;;;9.27;3.43;;;;;;;11.40;68.84;98011.06;4953403;28;20656;-77
2022/10/27 04:52:36;;;;;;;6.20;3.77;;;;;;;11.82;67.81;98052.06;4952099;28;20223;-76
2022/10/27 04:55:09;;;;;;;8.90;3.90;;;;;;;11.97;67.62;98056.72;4970863;28;20632;-77
2022/10/27 04:57:37;;;;;;;7.97;4.77;;;;;;;12.11;67.45;98049.28;4967748;28;20568;-77
2022/10/27 05:00:05;;;;;;;11.57;4.90;;;;;;;12.26;67.05;98051.34;4970305;28;20602;-77
2022/10/27 05:02:32;;;;;;;9.77;5.00;;;;;;;12.48;65.99;98054.00;4969543;28;20192;-78
2022/10/27 05:05:04;;;;;;;11.27;4.90;;;;;;;12.62;65.65;98062.13;4968667;28;20279;-76
2022/10/27 05:07:31;;;;;;;10.83;4.97;;;;;;;12.74;65.29;98059.06;4968960;28;20224;-76
2022/10/27 05:09:58;;;;;;;8.07;4.73;;;;;;;12.79;64.98;98057.13;4969072;28;20205;-76
2022/10/27 05:12:25;;;;;;;5.67;3.93;;;;;;;12.74;65.51;98056.44;4970508;28;20197;-75
2022/10/27 05:14:52;;;;;;;7.23;4.10;;;;;;;12.64;65.08;98060.31;4968909;28;20198;-76
2022/10/27 05:17:19;;;;;;;7.17;4.70;;;;;;;12.57;65.54;98061.47;4953005;28;20237;-77
2022/10/27 05:19:46;;;;;;;13.53;6.40;;;;;;;12.83;64.55;98075.16;4969109;28;20598;-78
2022/10/27 05:22:13;;;;;;;23.87;8.13;;;;;;;12.98;64.02;98071.94;4970062;28;20188;-78
2022/10/27 05:24:40;;;;;;;22.23;7.43;;;;;;;12.93;63.45;98076.50;4969222;28;20232;-78
2022/10/27 05:27:07;;;;;;;13.30;6.13;;;;;;;12.96;63.96;98065.97;4969065;28;20201;-78
2022/10/27 05:29:33;;;;;;;8.27;4.77;;;;;;;13.13;64.05;98080.13;4969689;28;20279;-77
2022/10/27 05:32:00;;;;;;;9.67;5.67;;;;;;;13.30;63.59;98068.13;4966304;28;20251;-77
2022/10/27 05:34:27;;;;;;;10.83;5.47;;;;;;;13.26;63.27;98087.38;4970058;28;20202;-78
2022/10/27 05:36:54;;;;;;;17.83;5.40;;;;;;;13.14;63.21;98089.59;4968278;28;20200;-76
2022/10/27 05:39:21;;;;;;;8.93;4.70;;;;;;;13.18;63.44;98089.44;4969597;28;20190;-77
2022/10/27 05:41:48;;;;;;;8.93;4.97;;;;;;;13.26;63.20;98104.72;4969278;28;20675;-77
2022/10/27 05:44:15;;;;;;;9.87;5.43;;;;;;;13.10;62.69;98107.09;4968891;28;20224;-77
2022/10/27 05:46:41;;;;;;;8.73;5.50;;;;;;;12.98;63.69;98102.34;4969656;28;20576;-77
2022/10/27 05:49:09;;;;;;;8.57;4.97;;;;;;;12.64;64.09;98100.16;4968410;28;20191;-77
2022/10/27 05:51:35;;;;;;;7.67;4.47;;;;;;;12.54;64.77;98106.59;4969612;28;20191;-77
2022/10/27 05:54:02;;;;;;;13.43;4.20;;;;;;;12.63;64.62;98114.03;4967979;28;20579;-77
2022/10/27 05:56:29;;;;;;;7.63;4.73;;;;;;;12.60;64.53;98102.91;4969709;28;20235;-77
2022/10/27 05:58:56;;;;;;;11.33;4.07;;;;;;;12.83;64.38;98108.97;4968372;28;20185;-77
2022/10/27 06:01:23;;;;;;;7.97;4.10;;;;;;;12.70;64.49;98112.06;4967447;28;20607;-77
2022/10/27 06:03:50;;;;;;;7.20;3.67;;;;;;;12.89;64.69;98113.94;4967600;28;20601;-78
2022/10/27 06:06:17;;;;;;;6.60;3.70;;;;;;;12.93;63.68;98112.03;4968203;28;20194;-77
2022/10/27 06:08:44;;;;;;;6.00;3.70;;;;;;;13.01;63.99;98118.66;4966610;28;20706;-78
2022/10/27 06:11:11;;;;;;;6.60;3.87;;;;;;;13.03;64.21;98114.25;4964708;28;20218;-77
2022/10/27 06:13:38;;;;;;;7.50;4.17;;;;;;;13.08;64.48;98121.91;4969201;28;20212;-77
2022/10/27 06:16:05;;;;;;;15.40;4.73;;;;;;;13.11;64.57;98108.78;4968397;28;20645;-77
2022/10/27 06:18:36;;;;;;;11.53;4.13;;;;;;;13.42;63.60;98129.22;4968489;28;20233;-77
2022/10/27 06:21:03;;;;;;;6.20;3.40;;;;;;;13.42;63.53;98111.00;4969342;28;20200;-77
2022/10/27 06:23:30;;;;;;;6.20;3.73;;;;;;;13.62;63.63;98121.50;4966518;28;20219;-77
2022/10/27 06:25:57;;;;;;;7.83;3.90;;;;;;;13.78;62.87;98128.63;4969152;28;20203;-77
2022/10/27 06:28:25;;;;;;;5.53;3.87;;;;;;;13.90;63.07;98137.66;4966124;28;20307;-78
2022/10/27 06:30:52;;;;;;;9.03;4.27;;;;;;;14.05;62.02;98134.44;4967758;28;20194;-78
2022/10/27 06:33:19;;;;;;;7.93;4.13;;;;;;;14.34;61.81;98135.81;4966341;28;20730;-78
2022/10/27 06:35:46;;;;;;;10.17;3.90;;;;;;;14.45;61.41;98136.19;4968759;28;20195;-78
2022/10/27 06:38:16;;;;;;;9.60;4.60;;;;;;;14.56;61.60;98134.81;4968306;28;20226;-78
2022/10/27 06:40:43;;;;;;;6.70;3.90;;;;;;;14.66;61.05;98135.25;4967506;28;20250;-77
2022/10/27 06:43:15;;;;;;;10.50;4.50;;;;;;;14.84;60.52;98129.19;4934952;28;20673;-77
2022/10/27 06:45:46;;;;;;;11.93;4.20;;;;;;;14.88;60.18;98122.94;4966963;28;20246;-78
2022/10/27 06:48:14;;;;;;;7.23;3.73;;;;;;;15.15;59.29;98133.84;4967788;28;20671;-77
2022/10/27 06:50:40;;;;;;;5.20;3.20;;;;;;;15.32;58.69;98124.34;4966695;28;20195;-78
2022/10/27 06:53:07;;;;;;;10.27;4.70;;;;;;;15.38;58.95;98133.63;4966148;28;20593;-77
2022/10/27 06:55:34;;;;;;;6.03;2.97;;;;;;;15.59;58.50;98129.19;4980135;28;20199;-77
2022/10/27 06:58:02;;;;;;;7.83;3.33;;;;;;;15.85;57.62;98132.22;4986679;28;20747;-77
2022/10/27 07:00:29;;;;;;;8.80;3.70;;;;;;;15.90;57.09;98124.16;4984321;28;20720;-78
2022/10/27 07:02:56;;;;;;;8.70;3.80;;;;;;;15.90;57.07;98135.47;4965545;28;20680;-76
2022/10/27 07:05:23;;;;;;;8.00;2.80;;;;;;;16.00;56.98;98141.91;4966167;28;20240;-76
2022/10/27 07:07:52;;;;;;;4.17;2.70;;;;;;;15.92;57.29;98141.44;4966204;28;20192;-76
2022/10/27 07:10:20;;;;;;;6.20;2.50;;;;;;;15.88;57.35;98142.53;4967638;28;20287;-76
2022/10/27 07:12:53;;;;;;;5.10;2.93;;;;;;;15.95;57.21;98143.91;4967708;28;20184;-75
2022/10/27 07:15:22;;;;;;;5.57;2.80;;;;;;;16.17;56.44;98148.91;4965496;28;20200;-76
2022/10/27 07:17:54;;;;;;;11.73;4.00;;;;;;;16.29;56.46;98133.47;4967633;28;20235;-76
2022/10/27 07:20:26;;;;;;;3.50;2.57;;;;;;;16.60;55.12;98150.19;4946933;29;20181;-77
2022/10/27 07:22:53;;;;;;;6.13;3.23;;;;;;;16.76;54.20;98143.22;4948447;28;20237;-77
2022/10/27 07:25:20;;;;;;;7.50;3.60;;;;;;;17.01;54.04;98141.00;4946798;29;20255;-76
2022/10/27 07:27:58;;;;;;;12.77;3.50;;;;;;;17.17;53.67;98135.78;4947273;29;20193;-79
2022/10/27 07:30:28;;;;;;;15.03;4.00;;;;;;;17.34;53.03;98149.66;4947194;29;20190;-77
2022/10/27 07:32:55;;;;;;;7.67;3.60;;;;;;;17.21;53.08;98132.91;4947335;28;20212;-77
2022/10/27 07:35:23;;;;;;;7.40;3.30;;;;;;;17.38;52.58;98148.56;4948491;28;20775;-77
2022/10/27 07:37:50;;;;;;;11.80;3.20;;;;;;;17.66;52.45;98143.47;4945612;29;20567;-77
2022/10/27 07:40:20;;;;;;;8.60;3.50;;;;;;;17.80;51.92;98146.16;4948341;28;20596;-77
2022/10/27 07:42:51;;;;;;;7.83;3.67;;;;;;;17.87;51.43;98137.03;4946892;28;20277;-76
2022/10/27 07:45:20;;;;;;;7.30;3.20;;;;;;;18.00;50.95;98144.19;4947247;28;20252;-77
2022/10/27 07:47:50;;;;;;;8.30;3.17;;;;;;;18.14;51.10;98150.31;4962770;28;20190;-76
2022/10/27 07:50:20;;;;;;;10.20;3.73;;;;;;;18.36;50.17;98152.53;4961502;28;20241;-77
2022/10/27 07:52:52;;;;;;;5.30;3.23;;;;;;;18.36;49.66;98144.66;4962921;28;20190;-77
2022/10/27 07:55:23;;;;;;;6.10;2.73;;;;;;;18.40;49.01;98151.41;4964306;28;20198;-77
2022/10/27 07:58:11;;;;;;;7.73;3.10;;;;;;;18.31;49.64;98137.06;4950550;29;20208;-77
2022/10/27 08:00:41;;;;;;;3.97;2.23;;;;;;;18.32;49.38;98132.69;4951748;29;20678;-77
2022/10/27 08:03:13;;;;;;;5.67;2.93;;;;;;;18.42;49.74;98150.38;4949454;29;20678;-78
2022/10/27 08:05:40;;;;;;;4.43;2.80;;;;;;;18.29;50.02;98143.34;4952034;28;20226;-77
2022/10/27 08:08:07;;;;;;;4.03;2.30;;;;;;;18.32;50.26;98151.84;4948799;29;20216;-77
2022/10/27 08:10:37;;;;;;;5.03;2.10;;;;;;;18.26;50.22;98152.22;4952370;29;20652;-77
2022/10/27 08:13:05;;;;;;;3.73;2.30;;;;;;;18.06;50.91;98151.69;4950885;28;20191;-77
2022/10/27 08:15:33;;;;;;;6.97;3.23;;;;;;;18.38;50.22;98148.03;4966675;28;20199;-78
2022/10/27 08:18:02;;;;;;;12.93;4.97;;;;;;;18.56;49.91;98142.59;4951386;28;20230;-78
2022/10/27 08:20:33;;;;;;;5.40;2.93;;;;;;;18.66;49.47;98150.72;4965354;28;20263;-78
2022/10/27 08:23:02;;;;;;;7.63;3.60;;;;;;;18.92;48.64;98146.53;4951635;28;20195;-77
2022/10/27 08:25:30;;;;;;;6.70;3.03;;;;;;;19.17;48.75;98146.69;4950315;28;20265;-78
2022/10/27 08:27:58;;;;;;;12.70;6.60;;;;;;;19.24;48.10;98153.25;4951482;28;20188;-77
2022/10/27 08:30:27;;;;;;;5.73;2.90;;;;;;;19.12;48.32;98157.50;4948879;29;20188;-77
2022/10/27 08:33:02;;;;;;;5.83;3.87;;;;;;;19.09;48.42;98162.06;4951086;28;20198;-76
2022/10/27 08:35:30;;;;;;;4.00;2.47;;;;;;;19.17;48.18;98158.03;4965841;28;20230;-77
2022/10/27 08:38:15;;;;;;;4.10;2.70;;;;;;;19.17;48.68;98155.41;4949995;28;20675;-76
2022/10/27 08:41:08;;;;;;;13.80;6.53;;;;;;;19.27;47.99;98156.50;4951397;28;20195;-78
2022/10/27 08:44:28;;;;;;;5.13;2.90;;;;;;;19.19;48.07;98158.78;4950214;28;20211;-78
2022/10/27 08:47:09;;;;;;;12.23;4.03;;;;;;;19.57;47.43;98158.19;4909016;29;20194;-78
2022/10/27 08:50:01;;;;;;;6.37;3.80;;;;;;;19.81;46.70;98151.34;4947256;28;20196;-76
2022/10/27 08:52:37;;;;;;;12.50;3.33;;;;;;;19.93;46.49;98155.78;4949401;29;20196;-77
2022/10/27 08:55:32;;;;;;;4.47;3.20;;;;;;;20.15;45.51;98161.34;4950282;29;20287;-78
2022/10/27 08:58:02;;;;;;;5.17;3.43;;;;;;;20.25;45.64;98162.44;4951927;28;20554;-77
2022/10/27 09:00:33;;;;;;;7.10;2.93;;;;;;;20.35;44.97;98152.16;4948493;29;20706;-78
2022/10/27 09:03:00;;;;;;;2.93;2.40;;;;;;;20.26;45.22;98153.59;4951543;28;20229;-78
2022/10/27 09:05:49;;;;;;;5.47;2.73;;;;;;;20.11;45.19;98152.78;4950625;28;20307;-78
2022/10/27 09:08:22;;;;;;;16.60;4.43;;;;;;;20.20;45.46;98148.75;4949530;28;20288;-79
2022/10/27 09:11:25;;;;;;;6.87;3.20;;;;;;;20.37;45.02;98140.56;4949655;29;20568;-80
2022/10/27 09:14:01;;;;;;;11.07;3.47;;;;;;;20.60;44.53;98145.13;4949441;28;20689;-79
2022/10/27 09:16:51;;;;;;;4.93;2.87;;;;;;;20.72;44.34;98141.66;4948065;28;20220;-78
2022/10/27 09:19:23;;;;;;;5.37;2.80;;;;;;;20.84;44.13;98140.81;4968968;28;20210;-78
2022/10/27 09:21:50;;;;;;;10.17;4.03;;;;;;;20.99;43.63;98137.09;4967765;28;20222;-79
2022/10/27 09:24:22;;;;;;;12.10;3.43;;;;;;;20.96;43.86;98133.81;4969401;28;20217;-78
2022/10/27 09:26:49;;;;;;;7.13;3.37;;;;;;;21.04;43.32;98119.19;4968759;28;20637;-78
2022/10/27 09:29:21;;;;;;;6.90;3.30;;;;;;;21.25;43.20;98129.16;4968999;28;20184;-78
2022/10/27 09:32:21;;;;;;;7.10;3.13;;;;;;;21.24;42.99;98123.06;4969569;28;20189;-78
2022/10/27 09:35:00;;;;;;;9.77;3.73;;;;;;;21.30;42.92;98122.63;4967524;28;20201;-78
2022/10/27 09:37:40;;;;;;;5.60;3.13;;;;;;;21.38;42.79;98124.72;4968833;28;20280;-78
2022/10/27 09:40:16;;;;;;;13.00;3.73;;;;;;;21.17;43.59;98115.69;4968915;28;20204;-78
2022/10/27 09:42:44;;;;;;;8.30;4.03;;;;;;;21.38;42.72;98119.44;4968081;28;20193;-78
2022/10/27 09:45:17;;;;;;;6.70;2.93;;;;;;;21.44;42.59;98113.72;4968261;28;20255;-78
2022/10/27 09:47:47;;;;;;;7.70;3.53;;;;;;;21.51;42.29;98114.97;4967755;28;20191;-77
2022/10/27 09:50:17;;;;;;;6.80;3.80;;;;;;;21.62;42.25;98115.00;4966874;28;20690;-78
2022/10/27 09:52:57;;;;;;;5.63;3.30;;;;;;;21.60;41.54;98109.00;4966277;28;20611;-78
2022/10/27 09:55:49;;;;;;;5.33;3.37;;;;;;;21.76;41.55;98110.41;4968533;28;20672;-77
2022/10/27 09:58:18;;;;;;;5.60;3.30;;;;;;;21.88;41.18;98109.53;4969249;28;20641;-78
2022/10/27 10:00:55;;;;;;;9.77;3.50;;;;;;;21.80;41.14;98100.50;4967747;28;20191;-78
2022/10/27 10:03:23;;;;;;;7.83;3.13;;;;;;;22.03;40.55;98112.03;4968703;28;20184;-77
2022/10/27 10:05:58;;;;;;;13.27;3.80;;;;;;;21.83;41.19;98105.56;4967973;28;20251;-79
2022/10/27 10:08:32;;;;;;;11.77;5.53;;;;;;;21.94;40.54;98081.88;4966956;28;20581;-78
2022/10/27 10:11:04;;;;;;;7.90;3.87;;;;;;;22.28;40.21;98102.13;4968891;28;20684;-79
2022/10/27 10:13:36;;;;;;;10.40;4.40;;;;;;;22.38;39.87;98099.66;4967666;28;20578;-79
2022/10/27 10:16:07;;;;;;;13.67;4.37;;;;;;;22.57;39.14;98097.25;4968302;28;20642;-79
2022/10/27 10:18:35;;;;;;;4.87;2.90;;;;;;;22.46;39.28;98092.78;4965426;28;20636;-78
2022/10/27 10:21:07;;;;;;;4.23;3.03;;;;;;;22.69;38.77;98095.50;4966729;28;20681;-77
2022/10/27 10:23:47;;;;;;;8.30;3.10;;;;;;;22.65;38.93;98090.47;4966716;28;20187;-79
2022/10/27 10:26:18;;;;;;;6.37;2.93;;;;;;;22.78;38.25;98084.22;4965619;28;20235;-79
2022/10/27 10:28:46;;;;;;;19.83;3.37;;;;;;;22.82;37.18;98088.28;4968662;28;20193;-77
2022/10/27 10:31:24;;;;;;;5.73;3.00;;;;;;;22.72;38.02;98085.53;4965952;28;20795;-76
2022/10/27 10:34:04;;;;;;;12.13;4.07;;;;;;;22.84;38.14;98079.31;4967199;28;20568;-77
2022/10/27 10:36:39;;;;;;;8.67;3.57;;;;;;;22.82;38.32;98081.22;4967717;28;20215;-77
2022/10/27 10:39:26;;;;;;;9.47;3.07;;;;;;;22.91;38.10;98079.66;4966927;28;20216;-78
2022/10/27 10:42:08;;;;;;;4.27;2.90;;;;;;;23.08;37.13;98084.47;4968580;28;20195;-77
2022/10/27 10:44:36;;;;;;;5.97;3.63;;;;;;;23.16;37.12;98084.69;4965506;28;20288;-77
2022/10/27 10:47:15;;;;;;;8.83;4.03;;;;;;;23.26;36.69;98081.19;4967669;28;20188;-77
2022/10/27 10:49:57;;;;;;;3.90;2.73;;;;;;;23.28;36.21;98083.72;4967700;28;20755;-77
2022/10/27 10:52:34;;;;;;;5.20;2.83;;;;;;;23.32;36.32;98074.59;4966438;28;20739;-79
2022/10/27 10:55:35;;;;;;;4.47;3.13;;;;;;;23.03;36.84;98066.31;4950809;28;20183;-77
2022/10/27 10:58:02;;;;;;;8.80;3.17;;;;;;;22.81;37.70;98060.22;4965711;28;20199;-78
2022/10/27 11:00:29;;;;;;;2.90;2.30;;;;;;;22.76;36.62;98072.94;4967226;28;20194;-77
2022/10/27 11:02:58;;;;;;;6.73;2.47;;;;;;;22.54;36.68;98060.53;4968050;28;20204;-78
2022/10/27 11:05:35;;;;;;;4.87;2.30;;;;;;;22.15;37.80;98067.09;4966145;28;20644;-78
2022/10/27 11:08:04;;;;;;;6.20;2.23;;;;;;;21.98;38.29;98067.50;4967659;28;20189;-76
2022/10/27 11:10:42;;;;;;;2.73;1.93;;;;;;;21.90;37.70;98064.59;4966448;28;20265;-77
2022/10/27 11:13:20;;;;;;;8.37;3.00;;;;;;;21.81;38.68;98058.22;4966317;28;20807;-77
2022/10/27 11:15:54;;;;;;;2.87;2.03;;;;;;;21.74;38.14;98064.84;4967825;28;20189;-77
2022/10/27 11:18:41;;;;;;;3.23;2.00;;;;;;;21.83;37.17;98053.66;4950247;28;20319;-75
2022/10/27 11:21:50;;;;;;;5.00;2.13;;;;;;;21.91;36.25;98055.72;4950780;28;20213;-77
2022/10/27 11:24:26;;;;;;;4.27;2.10;;;;;;;21.90;35.69;98047.94;4926713;29;20213;-76
2022/10/27 11:27:00;;;;;;;4.00;1.90;;;;;;;22.28;35.14;98054.63;4909770;29;20203;-75
2022/10/27 11:29:41;;;;;;;2.93;1.70;;;;;;;22.62;35.04;98052.91;4952876;28;20782;-77
2022/10/27 11:32:23;;;;;;;3.33;1.87;;;;;;;22.69;34.25;98047.97;4969627;28;20193;-76
2022/10/27 11:35:08;;;;;;;2.67;1.63;;;;;;;22.65;34.61;98048.19;4970141;28;20200;-81
2022/10/27 11:37:49;;;;;;;2.90;1.70;;;;;;;22.81;33.94;98047.84;4953090;29;20195;-78
2022/10/27 11:40:26;;;;;;;3.00;2.20;;;;;;;22.83;32.68;98035.38;4970052;28;20259;-75
2022/10/27 11:43:05;;;;;;;2.60;2.00;;;;;;;22.98;32.90;98049.16;4952625;29;20496;-76
2022/10/27 11:45:41;;;;;;;3.10;1.50;;;;;;;23.12;33.22;98040.97;4950491;29;20227;-78
2022/10/27 11:48:21;;;;;;;2.70;1.70;;;;;;;22.99;33.18;98024.41;4951846;29;20643;-79
2022/10/27 11:50:56;;;;;;;3.03;1.70;;;;;;;22.97;33.06;98043.03;4952466;29;20241;-79
2022/10/27 11:53:23;;;;;;;3.10;1.40;;;;;;;22.93;33.41;98046.03;4934301;29;20242;-78